Ardmore, Missouri
Current Conditions -  °F | °C
As of 11:55 AM on Monday 22 Dec 2014 (Local Time) from KIRK Reporting Station
Haze Haze  
Wind Chill: 33°   Ceiling: 300
Heat Index: 40°   Visibility: 1.2mi
Dew Point: 40°   Wind: 10mph
Humidity: 100%   Direction: 150°SSE
Pressure: 29.58"   Gusts: NA
Location:  39.6493°N, 92.4492°W
Report Text: KIRK 221755Z AUTO 15009KT 1 1/4SM BR OVC003 04/04 A2958 RMK AO2 RAE04B11E44 SLP024 P0001 60002 T00440044 10044 20039 58026
Loading
Personal Weather Stations






























Interactive Weather Map New forecast layout! Learn more

10-Day Weather Forecast

Advertisements
Track Severe Weather on mobile